createdAt,value
2023-03-15T00:00:18.742Z,10.7
2023-03-15T00:02:18.704Z,10.5
2023-03-15T00:04:18.687Z,10.6
2023-03-15T00:06:18.765Z,10.4
2023-03-15T00:08:18.747Z,10.6
2023-03-15T00:10:18.679Z,10.4
2023-03-15T00:12:18.698Z,10.3
2023-03-15T00:14:18.710Z,10.3
2023-03-15T00:16:18.869Z,10.3
2023-03-15T00:18:18.731Z,10.2
2023-03-15T00:20:18.675Z,10.2
2023-03-15T00:22:18.687Z,10.1
2023-03-15T00:24:18.694Z,10.1
2023-03-15T00:26:18.680Z,10.2
2023-03-15T00:28:18.697Z,10.1
2023-03-15T00:30:18.718Z,10
2023-03-15T00:32:18.680Z,10
2023-03-15T00:34:18.670Z,10
2023-03-15T00:36:18.696Z,10
2023-03-15T00:38:18.689Z,10
2023-03-15T00:40:18.634Z,10
2023-03-15T00:42:18.655Z,9.9
2023-03-15T00:44:18.671Z,9.9
2023-03-15T00:46:18.681Z,9.8
2023-03-15T00:48:18.653Z,9.7
2023-03-15T00:50:18.644Z,9.7
2023-03-15T00:52:18.663Z,9.7
2023-03-15T00:54:18.678Z,9.8
2023-03-15T00:56:18.623Z,9.8
2023-03-15T00:58:18.643Z,9.7
2023-03-15T01:00:18.688Z,9.7
2023-03-15T01:02:18.669Z,9.6
2023-03-15T01:04:18.633Z,9.7
2023-03-15T01:06:18.730Z,9.6
2023-03-15T01:08:18.690Z,9.7
2023-03-15T01:10:18.600Z,9.6
2023-03-15T01:12:18.660Z,9.5
2023-03-15T01:14:18.724Z,9.5
2023-03-15T01:16:18.637Z,9.5
2023-03-15T01:18:18.624Z,9.4
2023-03-15T01:20:18.641Z,9.5
2023-03-15T01:22:18.595Z,9.3
2023-03-15T01:24:18.603Z,9.4
2023-03-15T01:26:18.602Z,9.3
2023-03-15T01:28:18.656Z,9.3
2023-03-15T01:30:18.619Z,9.3
2023-03-15T01:32:18.617Z,9.2
2023-03-15T01:34:18.614Z,9.1
2023-03-15T01:36:18.624Z,9
2023-03-15T01:38:18.801Z,9
2023-03-15T01:40:18.566Z,9
2023-03-15T01:42:18.571Z,8.8
2023-03-15T01:44:18.603Z,8.8
2023-03-15T01:46:18.700Z,8.8
2023-03-15T01:48:18.724Z,8.9
2023-03-15T01:50:18.545Z,8.8
2023-03-15T01:52:18.592Z,8.8
2023-03-15T01:54:18.562Z,8.8
2023-03-15T01:56:18.658Z,8.7
2023-03-15T01:58:18.564Z,8.7
2023-03-15T02:00:18.578Z,8.7
2023-03-15T02:02:18.600Z,8.6
2023-03-15T02:04:18.541Z,8.5
2023-03-15T02:06:18.565Z,8.5
2023-03-15T02:08:18.534Z,8.5
2023-03-15T02:10:18.556Z,8.5
2023-03-15T02:12:18.626Z,8.5
2023-03-15T02:14:18.541Z,8.3
2023-03-15T02:16:18.725Z,8.2
2023-03-15T02:18:18.535Z,8.2
2023-03-15T02:20:18.520Z,8.2
2023-03-15T02:22:18.512Z,8.3
2023-03-15T02:24:18.548Z,8.2
2023-03-15T02:26:18.516Z,8.1
2023-03-15T02:28:18.540Z,8.1
2023-03-15T02:30:18.524Z,8
2023-03-15T02:32:18.549Z,8.1
2023-03-15T02:34:18.569Z,8
2023-03-15T02:36:18.503Z,8
2023-03-15T02:38:18.521Z,7.9
2023-03-15T02:40:18.637Z,7.8
2023-03-15T02:42:18.611Z,7.9
2023-03-15T02:44:18.519Z,7.8
2023-03-15T02:46:18.608Z,7.8
2023-03-15T02:48:18.502Z,7.8
2023-03-15T02:50:18.490Z,7.8
2023-03-15T02:52:18.590Z,7.6
2023-03-15T02:54:18.489Z,7.8
2023-03-15T02:56:18.509Z,7.7
2023-03-15T02:58:18.460Z,7.5
2023-03-15T03:00:18.518Z,7.6
2023-03-15T03:02:18.605Z,7.4
2023-03-15T03:04:18.461Z,7.4
2023-03-15T03:06:18.473Z,7.3
2023-03-15T03:08:18.506Z,7.4
2023-03-15T03:10:18.501Z,7.2
2023-03-15T03:12:18.536Z,7.3
2023-03-15T03:14:18.443Z,7.3
2023-03-15T03:16:18.471Z,7.1
2023-03-15T03:18:18.498Z,7
2023-03-15T03:20:18.521Z,7.1
2023-03-15T03:22:18.444Z,7.1
2023-03-15T03:24:18.461Z,7.2
2023-03-15T03:26:18.500Z,7.1
2023-03-15T03:28:18.484Z,7.1
2023-03-15T03:30:18.456Z,7.1
2023-03-15T03:32:18.424Z,7
2023-03-15T03:34:18.417Z,6.9
2023-03-15T03:36:18.465Z,6.9
2023-03-15T03:38:18.459Z,6.9
2023-03-15T03:40:18.420Z,6.8
2023-03-15T03:42:18.424Z,7
2023-03-15T03:44:18.477Z,7
2023-03-15T03:46:18.467Z,6.8
2023-03-15T03:48:18.470Z,6.7
2023-03-15T03:50:18.426Z,6.6
2023-03-15T03:52:18.445Z,6.5
2023-03-15T03:54:18.445Z,6.6
2023-03-15T03:56:18.492Z,6.6
2023-03-15T03:58:18.406Z,6.7
2023-03-15T04:00:18.386Z,6.5
2023-03-15T04:02:18.467Z,6.6
2023-03-15T04:04:18.398Z,6.5
2023-03-15T04:06:18.400Z,6.6
2023-03-15T04:08:18.390Z,6.5
2023-03-15T04:10:18.416Z,6.4
2023-03-15T04:12:18.470Z,6.3
2023-03-15T04:14:18.417Z,6.4
2023-03-15T04:16:18.506Z,6.4
2023-03-15T04:18:18.372Z,6.2
2023-03-15T04:20:18.404Z,6.2
2023-03-15T04:22:18.347Z,6.2
2023-03-15T04:24:18.622Z,6.4
2023-03-15T04:26:18.335Z,6.4
2023-03-15T04:28:18.407Z,6.4
2023-03-15T04:30:18.382Z,6.3
2023-03-15T04:32:18.370Z,6.3
2023-03-15T04:34:18.365Z,6.2
2023-03-15T04:36:18.454Z,6.1
2023-03-15T04:38:18.379Z,6
2023-03-15T04:40:18.332Z,6
2023-03-15T04:42:18.430Z,6.1
2023-03-15T04:44:18.364Z,6
2023-03-15T04:46:18.423Z,6
2023-03-15T04:48:18.333Z,6
2023-03-15T04:50:18.341Z,6
2023-03-15T04:52:18.344Z,5.9
2023-03-15T04:54:18.379Z,5.9
2023-03-15T04:56:18.381Z,6
2023-03-15T04:58:18.353Z,5.9
2023-03-15T05:00:18.341Z,5.9
2023-03-15T05:02:18.370Z,5.9
2023-03-15T05:04:18.332Z,5.9
2023-03-15T05:06:18.363Z,5.8
2023-03-15T05:08:18.318Z,5.8
2023-03-15T05:10:18.315Z,5.8
2023-03-15T05:12:18.298Z,5.7
2023-03-15T05:14:18.380Z,5.7
2023-03-15T05:16:18.351Z,5.7
2023-03-15T05:18:18.315Z,5.6
2023-03-15T05:20:18.291Z,5.6
2023-03-15T05:22:18.338Z,5.5
2023-03-15T05:24:18.284Z,5.6
2023-03-15T05:26:18.272Z,5.6
2023-03-15T05:28:18.363Z,5.6
2023-03-15T05:30:18.317Z,5.6
2023-03-15T05:32:18.328Z,5.6
2023-03-15T05:34:18.270Z,5.7
2023-03-15T05:36:18.266Z,5.6
2023-03-15T05:38:18.332Z,5.5
2023-03-15T05:40:18.316Z,5.5
2023-03-15T05:42:18.251Z,5.5
2023-03-15T05:44:18.276Z,5.5
2023-03-15T05:46:18.332Z,5.4
2023-03-15T05:48:18.275Z,5.5
2023-03-15T05:50:18.295Z,5.5
2023-03-15T05:52:18.238Z,5.4
2023-03-15T05:54:18.260Z,5.4
2023-03-15T05:56:18.261Z,5.4
2023-03-15T05:58:18.276Z,5.4
2023-03-15T06:00:18.225Z,5.3
2023-03-15T06:02:18.273Z,5.3
2023-03-15T06:04:18.267Z,5.3
2023-03-15T06:06:18.268Z,5.3
2023-03-15T06:08:18.253Z,5.3
2023-03-15T06:10:18.246Z,5.3
2023-03-15T06:12:18.266Z,5.3
2023-03-15T06:14:18.189Z,5.4
2023-03-15T06:16:18.320Z,5.4
2023-03-15T06:18:18.256Z,5.4
2023-03-15T06:20:18.240Z,5.2
2023-03-15T06:22:18.228Z,5.2
2023-03-15T06:24:18.258Z,5.3
2023-03-15T06:26:18.191Z,5.3
2023-03-15T06:28:18.181Z,5.4
2023-03-15T06:30:18.473Z,5.2
2023-03-15T06:32:18.277Z,5.1
2023-03-15T06:34:18.210Z,5.1
2023-03-15T06:36:18.171Z,5.1
2023-03-15T06:38:18.194Z,5.1
2023-03-15T06:40:18.285Z,5
2023-03-15T06:42:18.271Z,5
2023-03-15T06:44:18.190Z,5.1
2023-03-15T06:46:18.211Z,5
2023-03-15T06:48:18.222Z,4.9
2023-03-15T06:50:18.281Z,5
2023-03-15T06:52:18.234Z,4.9
2023-03-15T06:54:18.233Z,4.9
2023-03-15T06:56:18.161Z,5.1
2023-03-15T06:58:18.156Z,5
2023-03-15T07:00:18.214Z,5
2023-03-15T07:02:18.230Z,4.9
2023-03-15T07:04:18.194Z,4.9
2023-03-15T07:06:18.159Z,5
2023-03-15T07:08:18.198Z,4.9
2023-03-15T07:10:18.146Z,4.9
2023-03-15T07:12:18.166Z,4.8
2023-03-15T07:14:18.191Z,4.9
2023-03-15T07:16:18.221Z,5
2023-03-15T07:18:18.169Z,4.9
2023-03-15T07:20:18.146Z,4.9
2023-03-15T07:22:18.138Z,4.8
2023-03-15T07:24:18.133Z,4.8
2023-03-15T07:26:18.301Z,4.8
2023-03-15T07:28:18.122Z,4.8
2023-03-15T07:30:18.180Z,4.7
2023-03-15T07:32:18.347Z,4.7
2023-03-15T07:34:18.158Z,4.7
2023-03-15T07:36:18.127Z,4.6
2023-03-15T07:38:18.105Z,4.7
2023-03-15T07:40:18.152Z,4.8
2023-03-15T07:42:18.144Z,4.6
2023-03-15T07:44:18.158Z,4.7
2023-03-15T07:46:18.198Z,4.6
2023-03-15T07:48:18.084Z,4.6
2023-03-15T07:50:18.094Z,4.7
2023-03-15T07:52:18.130Z,4.6
2023-03-15T07:54:18.061Z,4.6
2023-03-15T07:56:19.284Z,4.7
2023-03-15T07:58:20.263Z,4.6
2023-03-15T08:00:18.100Z,4.5
2023-03-15T08:02:18.212Z,4.5
2023-03-15T08:04:18.038Z,4.6
2023-03-15T08:06:18.204Z,4.6
2023-03-15T08:08:18.076Z,4.5
2023-03-15T08:10:18.097Z,4.6
2023-03-15T08:12:18.065Z,4.5
2023-03-15T08:14:18.402Z,4.5
2023-03-15T08:16:18.092Z,4.6
2023-03-15T08:18:18.065Z,4.6
2023-03-15T08:20:18.249Z,4.6
2023-03-15T08:22:18.057Z,4.5
2023-03-15T08:24:18.048Z,4.5
2023-03-15T08:26:18.014Z,4.4
2023-03-15T08:28:18.068Z,4.4
2023-03-15T08:30:18.044Z,4.4
2023-03-15T08:32:18.054Z,4.3
2023-03-15T08:34:18.115Z,4.3
2023-03-15T08:36:18.131Z,4.3
2023-03-15T08:38:18.018Z,4.2
2023-03-15T08:40:18.010Z,4.2
2023-03-15T08:42:18.046Z,4.2
2023-03-15T08:44:18.049Z,4.3
2023-03-15T08:46:18.175Z,4.3
2023-03-15T08:48:17.996Z,4.3
2023-03-15T08:50:18.040Z,4.4
2023-03-15T08:52:18.304Z,4.3
2023-03-15T08:54:18.027Z,4.5
2023-03-15T08:56:18.050Z,4.5
2023-03-15T08:58:18.010Z,4.3
2023-03-15T09:00:18.026Z,4.2
2023-03-15T09:02:18.045Z,4.2
2023-03-15T09:04:18.079Z,4.3
2023-03-15T09:06:17.988Z,4.2
2023-03-15T09:08:17.955Z,4.3
2023-03-15T09:10:17.973Z,4.3
2023-03-15T09:12:18.021Z,4.3
2023-03-15T09:14:17.976Z,4.3
2023-03-15T09:16:18.006Z,4.3
2023-03-15T09:18:17.965Z,4.2
2023-03-15T09:20:17.943Z,4.2
2023-03-15T09:22:29.172Z,4.3
2023-03-15T09:24:17.973Z,4.2
2023-03-15T09:26:17.990Z,4.1
2023-03-15T09:28:17.982Z,4.2
2023-03-15T09:30:18.027Z,4.1
2023-03-15T09:32:17.974Z,4.2
2023-03-15T09:34:17.958Z,4.1
2023-03-15T09:36:17.946Z,4.1
2023-03-15T09:38:17.931Z,4
2023-03-15T09:40:18.012Z,4.1
2023-03-15T09:42:17.954Z,4.1
2023-03-15T09:44:17.976Z,4.1
2023-03-15T09:46:18.108Z,4.1
2023-03-15T09:48:18.004Z,4
2023-03-15T09:50:17.933Z,4
2023-03-15T09:52:17.933Z,3.9
2023-03-15T09:54:19.308Z,4
2023-03-15T09:56:17.970Z,4
2023-03-15T09:58:17.950Z,4.1
2023-03-15T10:00:17.939Z,4.1
2023-03-15T10:02:17.913Z,4
2023-03-15T10:04:17.925Z,4
2023-03-15T10:06:17.959Z,4
2023-03-15T10:08:17.901Z,4
2023-03-15T10:10:17.933Z,4
2023-03-15T10:12:17.918Z,4
2023-03-15T10:15:16.952Z,27.5
2023-03-15T10:15:16.973Z,4
2023-03-15T10:16:17.971Z,4
2023-03-15T10:18:17.893Z,3.9
2023-03-15T10:20:17.899Z,3.9
2023-03-15T10:22:17.910Z,3.9
2023-03-15T10:24:17.953Z,4
2023-03-15T10:26:17.869Z,4
2023-03-15T10:28:17.890Z,3.9
2023-03-15T10:30:17.856Z,3.9
2023-03-15T10:32:17.941Z,3.9
2023-03-15T10:34:17.892Z,4
2023-03-15T10:36:17.925Z,3.9
2023-03-15T10:38:17.878Z,3.9
2023-03-15T10:40:17.879Z,4
2023-03-15T10:42:17.908Z,4
2023-03-15T10:44:17.870Z,4
2023-03-15T10:46:17.902Z,4
2023-03-15T10:48:17.848Z,4
2023-03-15T10:50:17.923Z,4
2023-03-15T10:52:17.861Z,3.9
2023-03-15T10:54:17.852Z,4
2023-03-15T10:56:17.838Z,3.9
2023-03-15T10:58:17.890Z,4
2023-03-15T11:00:17.841Z,3.9
2023-03-15T11:02:17.836Z,3.9
2023-03-15T11:04:17.820Z,4
2023-03-15T11:06:17.929Z,3.9
2023-03-15T11:08:17.893Z,3.9
2023-03-15T11:10:17.828Z,3.9
2023-03-15T11:12:19.440Z,3.9
2023-03-15T11:14:17.832Z,4
2023-03-15T11:16:17.938Z,3.9
2023-03-15T11:18:17.802Z,3.8
2023-03-15T11:20:17.865Z,3.9
2023-03-15T11:22:17.810Z,3.9
2023-03-15T11:24:17.897Z,4
2023-03-15T11:26:25.732Z,3.9
2023-03-15T11:28:17.817Z,3.9
2023-03-15T11:30:17.974Z,4
2023-03-15T11:32:17.777Z,3.9
2023-03-15T11:34:17.912Z,4
2023-03-15T11:36:17.873Z,4
2023-03-15T11:38:17.805Z,3.9
2023-03-15T11:40:17.767Z,3.9
2023-03-15T11:42:17.818Z,3.9
2023-03-15T11:44:17.830Z,4
2023-03-15T11:46:17.772Z,4
2023-03-15T11:48:17.770Z,3.9
2023-03-15T11:50:17.829Z,3.9
2023-03-15T11:52:17.786Z,3.9
2023-03-15T11:54:17.761Z,3.9
2023-03-15T11:56:17.755Z,3.9
2023-03-15T11:58:17.847Z,3.8
2023-03-15T12:00:17.965Z,3.8
2023-03-15T12:02:17.836Z,3.8
2023-03-15T12:04:17.788Z,3.9
2023-03-15T12:06:17.763Z,3.9
2023-03-15T12:08:17.790Z,3.8
2023-03-15T12:10:17.720Z,3.8
2023-03-15T12:12:17.748Z,3.8
2023-03-15T12:14:17.751Z,4
2023-03-15T12:16:17.811Z,3.9
2023-03-15T12:18:17.796Z,3.9
2023-03-15T12:20:17.734Z,4.1
2023-03-15T12:22:17.733Z,4
2023-03-15T12:24:17.735Z,4
2023-03-15T12:26:17.757Z,4
2023-03-15T12:28:17.716Z,4
2023-03-15T12:30:17.779Z,4.1
2023-03-15T12:32:17.704Z,4.1
2023-03-15T12:34:17.754Z,4.2
2023-03-15T12:36:17.715Z,4.1
2023-03-15T12:38:17.712Z,4.3
2023-03-15T12:40:17.712Z,4.3
2023-03-15T12:42:17.716Z,4.4
2023-03-15T12:44:17.729Z,4.5
2023-03-15T12:46:17.734Z,4.6
2023-03-15T12:48:17.692Z,4.5
2023-03-15T12:50:17.694Z,4.6
2023-03-15T12:52:17.753Z,4.6
2023-03-15T12:54:17.696Z,4.9
2023-03-15T12:56:17.708Z,4.9
2023-03-15T12:58:17.678Z,4.9
2023-03-15T13:00:17.803Z,5
2023-03-15T13:02:17.695Z,5.1
2023-03-15T13:04:17.712Z,5.1
2023-03-15T13:06:17.682Z,5.4
2023-03-15T13:08:17.657Z,5.6
2023-03-15T13:10:17.705Z,5.6
2023-03-15T13:12:18.059Z,5.5
2023-03-15T13:14:17.660Z,5.5
2023-03-15T13:16:17.706Z,6
2023-03-15T13:18:17.711Z,5.9
2023-03-15T13:20:17.700Z,5.9
2023-03-15T13:22:17.667Z,5.9
2023-03-15T13:24:17.633Z,6.1
2023-03-15T13:26:17.689Z,6.3
2023-03-15T13:28:17.631Z,6.2
2023-03-15T13:30:17.686Z,6.2
2023-03-15T13:32:17.632Z,6.4
2023-03-15T13:34:17.639Z,6.5
2023-03-15T13:36:17.638Z,6.7
2023-03-15T13:38:17.700Z,6.8
2023-03-15T13:40:17.602Z,6.9
2023-03-15T13:42:17.620Z,7
2023-03-15T13:44:17.586Z,7.3
2023-03-15T13:46:17.653Z,7.3
2023-03-15T13:48:17.724Z,7.3
2023-03-15T13:50:17.603Z,7.4
2023-03-15T13:52:17.593Z,7.3
2023-03-15T13:54:17.628Z,7.5
2023-03-15T13:56:17.674Z,7.5
2023-03-15T13:58:17.615Z,7.6
2023-03-15T14:00:17.607Z,7.8
2023-03-15T14:02:17.602Z,7.9
2023-03-15T14:04:17.599Z,8.5
2023-03-15T14:06:17.663Z,8.4
2023-03-15T14:08:17.632Z,8.3
2023-03-15T14:10:17.602Z,8.2
2023-03-15T14:12:17.588Z,8.2
2023-03-15T14:14:17.649Z,8.6
2023-03-15T14:16:17.646Z,8.3
2023-03-15T14:18:17.586Z,8.4
2023-03-15T14:20:17.690Z,8.4
2023-03-15T14:22:17.615Z,8.5
2023-03-15T14:24:17.619Z,8.8
2023-03-15T14:26:17.598Z,9
2023-03-15T14:28:17.575Z,9
2023-03-15T14:30:17.560Z,9.2
2023-03-15T14:32:17.598Z,9
2023-03-15T14:34:17.598Z,9
2023-03-15T14:36:17.640Z,9
2023-03-15T14:38:17.592Z,9
2023-03-15T14:40:17.580Z,9.2
2023-03-15T14:42:17.620Z,9.2
2023-03-15T14:44:17.554Z,9.3
2023-03-15T14:46:17.619Z,9.5
2023-03-15T14:48:17.542Z,9.4
2023-03-15T14:50:17.613Z,9.5
2023-03-15T14:52:17.545Z,9.5
2023-03-15T14:54:17.559Z,9.7
2023-03-15T14:56:19.311Z,9.6
2023-03-15T14:58:17.581Z,9.7
2023-03-15T15:00:17.578Z,9.8
2023-03-15T15:02:17.602Z,9.7
2023-03-15T15:04:17.519Z,9.8
2023-03-15T15:06:17.508Z,9.8
2023-03-15T15:08:17.613Z,9.8
2023-03-15T15:10:17.540Z,9.9
2023-03-15T15:12:17.543Z,9.7
2023-03-15T15:14:17.526Z,10
2023-03-15T15:16:17.629Z,10
2023-03-15T15:18:17.527Z,10.2
2023-03-15T15:20:17.480Z,10.3
2023-03-15T15:22:17.489Z,10.2
2023-03-15T15:24:17.571Z,10.2
2023-03-15T15:26:17.561Z,10.3
2023-03-15T15:28:31.199Z,10.3
2023-03-15T15:30:17.505Z,10.5
2023-03-15T15:32:17.497Z,10.6
2023-03-15T15:34:17.503Z,10.7
2023-03-15T15:36:17.528Z,10.6
2023-03-15T15:38:17.499Z,10.7
2023-03-15T15:40:17.454Z,10.7
2023-03-15T15:42:17.507Z,10.9
2023-03-15T15:44:17.687Z,10.9
2023-03-15T15:46:17.503Z,10.9
2023-03-15T15:48:17.452Z,11
2023-03-15T15:50:17.454Z,10.9
2023-03-15T15:52:17.512Z,11.1
2023-03-15T15:54:17.438Z,11.1
2023-03-15T15:56:17.431Z,11
2023-03-15T15:58:17.564Z,11.1
2023-03-15T16:00:17.432Z,11.2
2023-03-15T16:02:17.559Z,11.3
2023-03-15T16:04:17.449Z,11.3
2023-03-15T16:06:17.458Z,11.4
2023-03-15T16:08:17.458Z,11.3
2023-03-15T16:10:17.453Z,11.4
2023-03-15T16:12:17.450Z,11.4
2023-03-15T16:14:17.414Z,11.5
2023-03-15T16:16:17.539Z,11.7
2023-03-15T16:18:17.486Z,11.8
2023-03-15T16:20:17.437Z,11.8
2023-03-15T16:22:17.420Z,11.7
2023-03-15T16:24:17.404Z,11.7
2023-03-15T16:26:17.400Z,11.8
2023-03-15T16:28:17.436Z,11.9
2023-03-15T16:30:17.423Z,12
2023-03-15T16:32:22.466Z,12.1
2023-03-15T16:34:17.419Z,11.9
2023-03-15T16:36:17.466Z,12
2023-03-15T16:38:17.404Z,12.1
2023-03-15T16:40:17.416Z,12.2
2023-03-15T16:42:17.422Z,12
2023-03-15T16:44:17.398Z,12.1
2023-03-15T16:46:17.542Z,12.3
2023-03-15T16:48:17.392Z,12.1
2023-03-15T16:50:17.398Z,12.3
2023-03-15T16:52:17.389Z,12.4
2023-03-15T16:54:27.522Z,12.5
2023-03-15T16:56:17.394Z,12.5
2023-03-15T16:58:17.417Z,12.7
2023-03-15T17:00:17.363Z,12.6
2023-03-15T17:02:17.379Z,12.9
2023-03-15T17:04:17.537Z,12.9
2023-03-15T17:06:17.401Z,12.8
2023-03-15T17:08:17.373Z,13.1
2023-03-15T17:10:17.352Z,13.1
2023-03-15T17:12:17.410Z,13
2023-03-15T17:14:17.353Z,12.9
2023-03-15T17:16:17.412Z,13
2023-03-15T17:18:17.365Z,12.9
2023-03-15T17:20:17.393Z,13
2023-03-15T17:22:17.394Z,13
2023-03-15T17:24:17.325Z,13.2
2023-03-15T17:26:17.336Z,13.2
2023-03-15T17:28:17.338Z,13.3
2023-03-15T17:30:17.408Z,13.4
2023-03-15T17:32:17.442Z,13.2
2023-03-15T17:34:17.321Z,13.5
2023-03-15T17:36:17.321Z,13.3
2023-03-15T17:38:17.348Z,13.5
2023-03-15T17:40:17.362Z,13.7
2023-03-15T17:42:17.340Z,13.7
2023-03-15T17:44:17.311Z,13.6
2023-03-15T17:46:17.410Z,13.6
2023-03-15T17:48:17.344Z,13.5
2023-03-15T17:50:17.296Z,13.7
2023-03-15T17:52:17.394Z,13.7
2023-03-15T17:54:17.322Z,13.9
2023-03-15T17:56:17.332Z,14
2023-03-15T17:58:17.327Z,14
2023-03-15T18:00:17.382Z,14
2023-03-15T18:02:17.318Z,14
2023-03-15T18:04:17.301Z,14.2
2023-03-15T18:06:17.314Z,14.2
2023-03-15T18:08:17.313Z,14.2
2023-03-15T18:10:17.260Z,14.3
2023-03-15T18:12:17.252Z,14.2
2023-03-15T18:14:17.258Z,14.1
2023-03-15T18:16:17.400Z,14.3
2023-03-15T18:18:17.261Z,14.3
2023-03-15T18:20:17.248Z,14.4
2023-03-15T18:22:17.277Z,14.3
2023-03-15T18:24:17.346Z,14.4
2023-03-15T18:26:17.256Z,14.5
2023-03-15T18:28:17.264Z,14.4
2023-03-15T18:30:17.257Z,14.8
2023-03-15T18:32:17.298Z,14.8
2023-03-15T18:34:17.300Z,14.9
2023-03-15T18:36:17.339Z,14.9
2023-03-15T18:38:17.217Z,14.8
2023-03-15T18:40:17.285Z,14.8
2023-03-15T18:42:17.250Z,14.9
2023-03-15T18:44:17.262Z,14.9
2023-03-15T18:46:17.357Z,14.9
2023-03-15T18:48:18.349Z,14.9
2023-03-15T18:50:17.229Z,14.9
2023-03-15T18:52:17.256Z,15
2023-03-15T18:54:17.262Z,15.1
2023-03-15T18:56:17.242Z,15.2
2023-03-15T18:58:17.302Z,15
2023-03-15T19:00:17.227Z,15
2023-03-15T19:02:17.319Z,15
2023-03-15T19:04:17.197Z,15.1
2023-03-15T19:06:17.217Z,15
2023-03-15T19:08:17.226Z,15.3
2023-03-15T19:10:17.275Z,15.2
2023-03-15T19:12:17.194Z,15.2
2023-03-15T19:14:17.201Z,15.4
2023-03-15T19:16:17.218Z,15.6
2023-03-15T19:18:17.206Z,15.4
2023-03-15T19:20:17.208Z,15.4
2023-03-15T19:22:17.172Z,15.5
2023-03-15T19:24:17.170Z,15.6
2023-03-15T19:26:17.178Z,15.6
2023-03-15T19:28:17.257Z,15.7
2023-03-15T19:30:17.167Z,15.4
2023-03-15T19:32:17.214Z,15.4
2023-03-15T19:34:17.196Z,15.6
2023-03-15T19:36:17.264Z,15.7
2023-03-15T19:38:17.186Z,15.9
2023-03-15T19:40:17.181Z,15.8
2023-03-15T19:42:17.196Z,15.6
2023-03-15T19:44:17.159Z,15.6
2023-03-15T19:46:17.288Z,15.9
2023-03-15T19:48:17.151Z,15.7
2023-03-15T19:50:17.208Z,15.7
2023-03-15T19:52:17.181Z,15.8
2023-03-15T19:54:17.191Z,15.8
2023-03-15T19:56:17.232Z,15.8
2023-03-15T19:58:17.156Z,15.8
2023-03-15T20:00:17.180Z,15.8
2023-03-15T20:02:17.150Z,15.9
2023-03-15T20:04:17.259Z,15.8
2023-03-15T20:06:17.121Z,15.8
2023-03-15T20:08:17.180Z,15.7
2023-03-15T20:10:17.119Z,15.8
2023-03-15T20:12:17.148Z,15.7
2023-03-15T20:14:17.166Z,15.9
2023-03-15T20:16:17.182Z,15.9
2023-03-15T20:18:17.133Z,15.8
2023-03-15T20:20:17.108Z,15.7
2023-03-15T20:22:17.197Z,15.6
2023-03-15T20:24:17.130Z,15.9
2023-03-15T20:26:17.114Z,15.9
2023-03-15T20:28:17.145Z,15.9
2023-03-15T20:30:17.141Z,15.9
2023-03-15T20:32:17.150Z,15.9
2023-03-15T20:34:17.099Z,15.7
2023-03-15T20:36:17.184Z,15.8
2023-03-15T20:38:17.094Z,16.2
2023-03-15T20:40:17.160Z,16.2
2023-03-15T20:42:17.143Z,16.2
2023-03-15T20:44:17.088Z,16.5
2023-03-15T20:46:17.166Z,16.3
2023-03-15T20:48:17.066Z,16.2
2023-03-15T20:50:17.133Z,16.2
2023-03-15T20:52:17.083Z,16.3
2023-03-15T20:54:17.082Z,16.4
2023-03-15T20:56:17.078Z,16.3
2023-03-15T20:58:17.103Z,16.1
2023-03-15T21:00:17.099Z,16
2023-03-15T21:02:17.052Z,16.2
2023-03-15T21:04:17.071Z,16.2
2023-03-15T21:06:17.087Z,16.3
2023-03-15T21:08:17.098Z,16.2
2023-03-15T21:10:17.094Z,16.1
2023-03-15T21:12:17.044Z,16
2023-03-15T21:14:17.046Z,16.2
2023-03-15T21:16:17.146Z,16.1
2023-03-15T21:18:17.055Z,16
2023-03-15T21:20:17.036Z,16
2023-03-15T21:22:17.065Z,16
2023-03-15T21:24:17.030Z,16.1
2023-03-15T21:26:17.068Z,16.1
2023-03-15T21:28:17.044Z,16.1
2023-03-15T21:30:17.038Z,16
2023-03-15T21:32:17.010Z,15.9
2023-03-15T21:34:17.018Z,15.7
2023-03-15T21:36:17.055Z,15.9
2023-03-15T21:38:17.039Z,16.1
2023-03-15T21:40:17.020Z,15.8
2023-03-15T21:42:17.021Z,15.8
2023-03-15T21:44:17.037Z,15.7
2023-03-15T21:46:17.188Z,15.9
2023-03-15T21:48:17.009Z,15.8
2023-03-15T21:50:16.983Z,15.8
2023-03-15T21:52:16.984Z,15.5
2023-03-15T21:54:17.012Z,15.5
2023-03-15T21:56:16.985Z,15.7
2023-03-15T21:58:16.991Z,15.5
2023-03-15T22:00:16.998Z,15.5
2023-03-15T22:02:16.966Z,15.6
2023-03-15T22:04:17.045Z,15.5
2023-03-15T22:06:17.007Z,15.3
2023-03-15T22:08:17.006Z,15.3
2023-03-15T22:10:16.989Z,15.4
2023-03-15T22:12:16.999Z,15.3
2023-03-15T22:14:16.998Z,15.2
2023-03-15T22:16:16.997Z,15.3
2023-03-15T22:18:16.946Z,15.2
2023-03-15T22:20:17.186Z,15.2
2023-03-15T22:22:16.939Z,15
2023-03-15T22:24:16.976Z,14.9
2023-03-15T22:26:16.957Z,14.9
2023-03-15T22:28:16.945Z,14.8
2023-03-15T22:30:16.963Z,14.7
2023-03-15T22:32:16.929Z,14.6
2023-03-15T22:34:16.943Z,14.5
2023-03-15T22:36:16.979Z,14.5
2023-03-15T22:38:16.992Z,14.5
2023-03-15T22:40:17.126Z,14.3
2023-03-15T22:42:16.939Z,14
2023-03-15T22:44:16.943Z,13.9
2023-03-15T22:46:17.007Z,14
2023-03-15T22:48:16.965Z,14
2023-03-15T22:50:16.957Z,14.1
2023-03-15T22:52:16.933Z,13.8
2023-03-15T22:54:16.934Z,13.6
2023-03-15T22:56:16.982Z,13.6
2023-03-15T22:58:16.919Z,13.7
2023-03-15T23:00:16.931Z,13.6
2023-03-15T23:02:16.930Z,13.5
2023-03-15T23:04:17.148Z,13.2
2023-03-15T23:06:16.949Z,13.3
2023-03-15T23:08:16.917Z,13.2
2023-03-15T23:10:16.907Z,13.1
2023-03-15T23:12:19.845Z,13.1
2023-03-15T23:14:16.968Z,13
2023-03-15T23:16:16.948Z,13
2023-03-15T23:18:16.887Z,12.9
2023-03-15T23:20:16.947Z,13
2023-03-15T23:22:16.950Z,12.7
2023-03-15T23:24:16.904Z,12.7
2023-03-15T23:26:16.903Z,12.6
2023-03-15T23:28:16.908Z,12.4
2023-03-15T23:30:16.891Z,12.3
2023-03-15T23:32:16.908Z,12.3
2023-03-15T23:34:16.902Z,12.2
2023-03-15T23:36:16.907Z,12.3
2023-03-15T23:38:16.909Z,12.2
2023-03-15T23:40:16.921Z,12.1
2023-03-15T23:42:16.874Z,12.1
2023-03-15T23:44:16.891Z,12
2023-03-15T23:46:16.958Z,12
2023-03-15T23:48:16.887Z,12
2023-03-15T23:50:16.916Z,12
2023-03-15T23:52:16.854Z,12.1
2023-03-15T23:54:16.875Z,12.1
2023-03-15T23:56:16.845Z,12.1
2023-03-15T23:58:16.884Z,12
